createdAt,value
2022-12-15T07:43:49.241Z,55.75
2022-12-15T07:43:59.151Z,55.40
2022-12-15T07:44:09.153Z,55.69
2022-12-15T07:44:19.135Z,54.44
2022-12-15T07:44:29.152Z,53.31
2022-12-15T07:44:39.141Z,52.71
2022-12-15T07:44:49.948Z,52.04
2022-12-15T07:44:59.171Z,51.38
2022-12-15T07:45:09.147Z,52.01
2022-12-15T07:45:19.272Z,50.91
2022-12-15T07:45:29.346Z,50.23
2022-12-15T07:45:39.165Z,49.88
2022-12-15T07:45:51.575Z,49.60
2022-12-15T07:45:59.256Z,48.52
2022-12-15T07:46:09.192Z,48.44
2022-12-15T07:46:19.454Z,47.61
2022-12-15T07:46:29.393Z,47.25
2022-12-15T07:46:39.341Z,47.02
2022-12-15T07:46:49.504Z,46.67
2022-12-15T07:46:59.340Z,46.05
2022-12-15T07:47:09.305Z,45.77
2022-12-15T07:47:19.413Z,45.67
2022-12-15T07:47:29.327Z,45.37
2022-12-15T07:47:39.366Z,45.03
2022-12-15T07:47:49.353Z,44.88
2022-12-15T07:47:59.324Z,44.39
2022-12-15T07:48:09.303Z,43.88
2022-12-15T07:48:19.357Z,43.66
2022-12-15T07:48:29.338Z,43.29
2022-12-15T07:48:39.311Z,43.06
2022-12-15T07:48:50.246Z,42.96
2022-12-15T07:48:59.323Z,42.58
2022-12-15T07:49:09.375Z,42.13
2022-12-15T07:49:19.348Z,42.06
2022-12-15T07:49:29.345Z,41.71
2022-12-15T07:49:39.357Z,41.20
2022-12-15T07:49:49.349Z,41.45
2022-12-15T07:49:59.321Z,40.74
2022-12-15T07:50:09.313Z,39.38
2022-12-15T07:50:19.356Z,39.40
2022-12-15T07:50:29.330Z,39.36
2022-12-15T07:50:39.351Z,39.18
2022-12-15T07:50:50.393Z,38.86
2022-12-15T07:51:07.439Z,38.19
2022-12-15T07:51:17.380Z,37.67
2022-12-15T07:51:20.616Z,36.96
2022-12-15T07:51:29.369Z,35.78
2022-12-15T07:51:39.336Z,36.21
2022-12-15T07:51:49.357Z,36.70
2022-12-15T07:51:59.290Z,35.73
2022-12-15T07:52:09.355Z,34.72
2022-12-15T07:52:19.311Z,34.51
2022-12-15T07:52:29.320Z,34.79
2022-12-15T07:52:39.331Z,35.13
2022-12-15T07:52:49.331Z,35.79
2022-12-15T07:52:59.355Z,36.45
2022-12-15T07:53:09.327Z,36.80
2022-12-15T07:53:19.322Z,36.43
2022-12-15T07:53:29.657Z,36.52
2022-12-15T07:53:39.325Z,36.33
2022-12-15T07:53:49.322Z,36.43
2022-12-15T07:53:59.318Z,37.87
2022-12-15T07:54:09.348Z,39.03
2022-12-15T07:54:19.341Z,38.97
2022-12-15T07:54:29.316Z,36.80
2022-12-15T07:54:39.308Z,36.03
2022-12-15T07:54:49.360Z,36.24
2022-12-15T07:54:59.320Z,36.24
2022-12-15T07:55:09.378Z,36.18
2022-12-15T07:55:27.775Z,36.01
2022-12-15T07:55:57.309Z,35.47
2022-12-15T07:56:05.521Z,35.64
2022-12-15T07:56:06.801Z,35.95
2022-12-15T07:56:07.588Z,35.91
2022-12-15T07:56:10.584Z,35.50
2022-12-15T07:56:19.370Z,35.28
2022-12-15T07:56:30.586Z,35.00
2022-12-15T07:56:39.626Z,34.88
2022-12-15T07:56:50.489Z,34.88
2022-12-15T07:56:59.395Z,35.08
2022-12-15T07:57:09.345Z,34.91
2022-12-15T07:57:19.287Z,34.69
2022-12-15T07:57:29.314Z,34.84
2022-12-15T07:57:39.300Z,34.99
2022-12-15T07:57:49.285Z,35.05
2022-12-15T07:57:59.288Z,34.87
2022-12-15T07:58:09.322Z,35.01
2022-12-15T07:58:19.347Z,34.94
2022-12-15T07:58:29.312Z,34.73
2022-12-15T07:58:39.286Z,35.03
2022-12-15T07:58:49.332Z,35.06
2022-12-15T07:58:59.377Z,34.73
2022-12-15T07:59:09.295Z,34.87
2022-12-15T07:59:19.276Z,34.59
2022-12-15T07:59:29.305Z,34.34
2022-12-15T07:59:39.300Z,34.38
2022-12-15T07:59:49.375Z,34.46
2022-12-15T07:59:59.279Z,34.61
2022-12-15T08:00:09.302Z,34.51
2022-12-15T08:00:19.301Z,34.49
2022-12-15T08:00:29.275Z,34.61
2022-12-15T08:00:42.736Z,34.25
2022-12-15T08:00:50.322Z,34.06
2022-12-15T08:00:59.371Z,33.95
2022-12-15T08:01:09.410Z,34.01
2022-12-15T08:01:19.431Z,34.14
2022-12-15T08:01:29.392Z,34.02
2022-12-15T08:01:39.459Z,33.94
2022-12-15T08:01:49.727Z,34.09
2022-12-15T08:01:59.477Z,34.07
2022-12-15T08:02:09.522Z,33.95
2022-12-15T08:02:19.438Z,33.88
2022-12-15T08:02:29.461Z,33.57
2022-12-15T08:02:39.556Z,33.94
2022-12-15T08:02:50.108Z,33.98
2022-12-15T08:02:59.458Z,34.08
2022-12-15T08:03:09.599Z,34.10
2022-12-15T08:03:19.536Z,33.50
2022-12-15T08:03:29.933Z,33.39
2022-12-15T08:03:39.979Z,33.58
2022-12-15T08:03:49.544Z,33.20
2022-12-15T08:03:59.513Z,33.40
2022-12-15T08:04:09.483Z,33.81
2022-12-15T08:04:19.441Z,34.00
2022-12-15T08:04:29.456Z,33.96
2022-12-15T08:04:39.511Z,34.00
2022-12-15T08:04:49.444Z,33.99
2022-12-15T08:04:59.449Z,33.79
2022-12-15T08:05:09.465Z,33.80
2022-12-15T08:05:19.493Z,33.81
2022-12-15T08:05:29.480Z,33.50
2022-12-15T08:05:39.479Z,33.74
2022-12-15T08:05:49.508Z,33.64
2022-12-15T08:06:04.007Z,33.46
2022-12-15T08:06:10.507Z,33.80
2022-12-15T08:06:19.419Z,33.41
2022-12-15T08:06:29.482Z,33.45
2022-12-15T08:06:39.452Z,33.33
2022-12-15T08:06:49.481Z,33.27
2022-12-15T08:06:59.411Z,33.38
2022-12-15T08:07:09.474Z,33.32
2022-12-15T08:07:19.495Z,33.38
2022-12-15T08:07:29.451Z,33.22
2022-12-15T08:07:39.431Z,33.24
2022-12-15T08:07:49.484Z,33.51
2022-12-15T08:07:59.506Z,33.56
2022-12-15T08:08:15.153Z,33.17
2022-12-15T08:08:20.478Z,33.22
2022-12-15T08:08:29.750Z,34.03
2022-12-15T08:08:39.696Z,33.88
2022-12-15T08:08:50.380Z,33.82
2022-12-15T08:08:59.672Z,33.94
2022-12-15T08:09:09.817Z,33.81
2022-12-15T08:09:19.943Z,33.89
2022-12-15T08:09:29.807Z,33.74
2022-12-15T08:09:39.831Z,33.40
2022-12-15T08:09:49.833Z,33.66
2022-12-15T08:09:59.805Z,38.27
2022-12-15T08:10:09.829Z,36.09
2022-12-15T08:10:19.822Z,35.49
2022-12-15T08:10:29.778Z,34.91
2022-12-15T08:10:39.835Z,34.56
2022-12-15T08:10:49.771Z,34.41
2022-12-15T08:10:59.821Z,34.18
2022-12-15T08:11:09.815Z,34.08
2022-12-15T08:11:19.858Z,33.92
2022-12-15T08:11:29.801Z,33.84
2022-12-15T08:11:39.796Z,34.16
2022-12-15T08:11:49.795Z,34.03
2022-12-15T08:11:59.787Z,34.01
2022-12-15T08:12:09.793Z,34.05
2022-12-15T08:12:19.782Z,34.13
2022-12-15T08:12:29.827Z,33.94
2022-12-15T08:12:39.784Z,33.97
2022-12-15T08:12:49.846Z,33.93
2022-12-15T08:12:59.783Z,34.01
2022-12-15T08:13:09.810Z,33.94
2022-12-15T08:13:52.437Z,33.91
2022-12-15T08:14:01.333Z,33.99
2022-12-15T08:14:03.185Z,33.66
2022-12-15T08:14:10.365Z,33.71
2022-12-15T08:14:16.683Z,33.32
2022-12-15T08:14:21.242Z,33.51
2022-12-15T08:14:29.802Z,33.44
2022-12-15T08:14:39.817Z,33.68
2022-12-15T08:14:50.069Z,33.92
2022-12-15T08:14:59.818Z,33.49
2022-12-15T08:15:09.822Z,33.69
2022-12-15T08:15:19.869Z,33.68
2022-12-15T08:15:29.800Z,33.81
2022-12-15T08:15:39.777Z,33.87
2022-12-15T08:15:49.790Z,33.49
2022-12-15T08:15:59.897Z,33.14
2022-12-15T08:16:09.840Z,33.39
2022-12-15T08:16:19.854Z,33.41
2022-12-15T08:16:29.821Z,33.22
2022-12-15T08:16:39.975Z,33.11
2022-12-15T08:16:50.000Z,33.14
2022-12-15T08:17:00.072Z,33.26
2022-12-15T08:17:09.935Z,33.26
2022-12-15T08:17:19.955Z,33.25
2022-12-15T08:17:29.971Z,33.29
2022-12-15T08:17:39.943Z,33.36
2022-12-15T08:17:49.941Z,33.31
2022-12-15T08:17:59.925Z,33.18
2022-12-15T08:18:09.947Z,33.07
2022-12-15T08:18:19.931Z,32.99
2022-12-15T08:18:29.961Z,32.84
2022-12-15T08:18:39.950Z,32.88
2022-12-15T08:18:49.933Z,32.99
2022-12-15T08:18:59.938Z,32.99
2022-12-15T08:19:09.956Z,33.17
2022-12-15T08:19:19.916Z,33.20
2022-12-15T08:19:29.915Z,33.18
2022-12-15T08:19:39.953Z,33.16
2022-12-15T08:19:49.950Z,33.13
2022-12-15T08:20:02.403Z,33.20
2022-12-15T08:20:10.920Z,33.01
2022-12-15T08:20:19.961Z,32.92
2022-12-15T08:20:29.961Z,32.92
2022-12-15T08:20:39.928Z,32.91
2022-12-15T08:20:50.242Z,32.92
2022-12-15T08:20:59.949Z,33.05
2022-12-15T08:21:09.915Z,33.14
2022-12-15T08:21:19.960Z,33.07
2022-12-15T08:21:29.921Z,33.02
2022-12-15T08:21:39.930Z,33.09
2022-12-15T08:21:49.933Z,33.06
2022-12-15T08:21:59.921Z,33.11
2022-12-15T08:22:09.913Z,33.14
2022-12-15T08:22:19.890Z,32.94
2022-12-15T08:22:29.937Z,32.87
2022-12-15T08:22:39.927Z,32.87
2022-12-15T08:22:49.896Z,32.81
2022-12-15T08:22:59.930Z,32.86
2022-12-15T08:23:09.900Z,32.82
2022-12-15T08:23:19.928Z,32.79
2022-12-15T08:23:30.261Z,32.74
2022-12-15T08:23:39.917Z,32.67
2022-12-15T08:23:49.916Z,32.65
2022-12-15T08:23:59.880Z,32.73
2022-12-15T08:24:09.918Z,32.77
2022-12-15T08:24:19.894Z,36.58
2022-12-15T08:24:29.969Z,49.95
2022-12-15T08:24:39.858Z,39.69
2022-12-15T08:24:49.911Z,36.60
2022-12-15T08:24:59.918Z,35.82
2022-12-15T08:25:09.918Z,44.05
2022-12-15T08:25:19.867Z,40.02
2022-12-15T08:25:29.921Z,37.31
2022-12-15T08:25:39.890Z,37.90
2022-12-15T08:25:49.958Z,53.48
2022-12-15T08:25:59.923Z,47.68
2022-12-15T08:26:09.874Z,42.65
2022-12-15T08:26:22.634Z,40.04
2022-12-15T08:26:31.590Z,38.63
2022-12-15T08:26:39.889Z,37.17
2022-12-15T08:26:50.461Z,34.63
2022-12-15T08:26:59.879Z,34.22
2022-12-15T08:27:09.876Z,35.01
2022-12-15T08:27:19.875Z,34.98
2022-12-15T08:27:29.868Z,35.11
2022-12-15T08:27:39.860Z,35.07
2022-12-15T08:27:49.885Z,34.99
2022-12-15T08:27:59.863Z,34.79
2022-12-15T08:28:09.845Z,34.57
2022-12-15T08:28:19.847Z,33.58
2022-12-15T08:28:29.900Z,33.80
2022-12-15T08:28:39.863Z,33.05
2022-12-15T08:28:49.844Z,33.66
2022-12-15T08:29:17.498Z,33.87
2022-12-15T08:29:49.505Z,33.99
2022-12-15T08:29:51.590Z,34.09
2022-12-15T08:29:52.077Z,34.12
2022-12-15T08:29:56.109Z,34.10
2022-12-15T08:29:59.892Z,34.20
2022-12-15T08:30:09.891Z,34.26
2022-12-15T08:30:19.923Z,34.47
2022-12-15T08:30:29.861Z,34.50
2022-12-15T08:30:39.863Z,34.39
2022-12-15T08:30:49.913Z,34.30
2022-12-15T08:30:59.897Z,34.65
2022-12-15T08:31:09.915Z,34.70
2022-12-15T08:31:19.966Z,34.56
2022-12-15T08:31:29.939Z,34.09
2022-12-15T08:31:39.980Z,34.11
2022-12-15T08:31:49.968Z,34.19
2022-12-15T08:31:59.919Z,34.22
2022-12-15T08:32:09.946Z,34.17
2022-12-15T08:32:19.969Z,34.21
2022-12-15T08:32:29.900Z,34.08
2022-12-15T08:32:39.891Z,35.59
2022-12-15T08:32:52.071Z,44.66
2022-12-15T08:32:59.911Z,41.40
2022-12-15T08:33:09.921Z,44.70
2022-12-15T08:33:20.091Z,68.58
2022-12-15T08:33:30.456Z,59.87
2022-12-15T08:33:40.118Z,56.54
2022-12-15T08:33:50.102Z,63.51
2022-12-15T08:34:00.102Z,44.92
2022-12-15T08:34:10.083Z,35.76
2022-12-15T08:34:20.093Z,28.58
